sensor_id;sensor_type;location;lat;lon;timestamp;P1;durP1;ratioP1;P2;durP2;ratioP2
27794;SDS011;15176;50.844;4.412;2023-06-22T00:02:17;8.38;;;3.17;;
27794;SDS011;15176;50.844;4.412;2023-06-22T00:04:43;6.00;;;3.05;;
27794;SDS011;15176;50.844;4.412;2023-06-22T00:07:08;5.22;;;2.58;;
27794;SDS011;15176;50.844;4.412;2023-06-22T00:09:37;5.43;;;2.70;;
27794;SDS011;15176;50.844;4.412;2023-06-22T00:12:03;8.40;;;3.22;;
27794;SDS011;15176;50.844;4.412;2023-06-22T00:14:32;5.82;;;3.30;;
27794;SDS011;15176;50.844;4.412;2023-06-22T00:16:58;7.13;;;3.50;;
27794;SDS011;15176;50.844;4.412;2023-06-22T00:19:24;6.18;;;3.53;;
27794;SDS011;15176;50.844;4.412;2023-06-22T00:21:50;7.28;;;3.45;;
27794;SDS011;15176;50.844;4.412;2023-06-22T00:24:19;7.45;;;3.63;;
27794;SDS011;15176;50.844;4.412;2023-06-22T00:26:49;7.28;;;3.63;;
27794;SDS011;15176;50.844;4.412;2023-06-22T00:29:16;8.15;;;3.83;;
27794;SDS011;15176;50.844;4.412;2023-06-22T00:31:44;6.40;;;4.07;;
27794;SDS011;15176;50.844;4.412;2023-06-22T00:34:09;7.47;;;3.90;;
27794;SDS011;15176;50.844;4.412;2023-06-22T00:36:35;7.28;;;3.83;;
27794;SDS011;15176;50.844;4.412;2023-06-22T00:39:01;9.48;;;4.07;;
27794;SDS011;15176;50.844;4.412;2023-06-22T00:41:28;6.15;;;3.53;;
27794;SDS011;15176;50.844;4.412;2023-06-22T00:43:54;8.10;;;4.18;;
27794;SDS011;15176;50.844;4.412;2023-06-22T00:46:20;7.55;;;4.10;;
27794;SDS011;15176;50.844;4.412;2023-06-22T00:48:47;7.07;;;3.85;;
27794;SDS011;15176;50.844;4.412;2023-06-22T00:51:13;8.07;;;4.28;;
27794;SDS011;15176;50.844;4.412;2023-06-22T00:53:40;6.28;;;3.78;;
27794;SDS011;15176;50.844;4.412;2023-06-22T00:56:08;6.70;;;3.70;;
27794;SDS011;15176;50.844;4.412;2023-06-22T00:58:34;7.07;;;3.47;;
27794;SDS011;15176;50.844;4.412;2023-06-22T01:01:01;6.80;;;3.97;;
27794;SDS011;15176;50.844;4.412;2023-06-22T01:03:27;7.47;;;3.83;;
27794;SDS011;15176;50.844;4.412;2023-06-22T01:05:53;6.63;;;3.70;;
27794;SDS011;15176;50.844;4.412;2023-06-22T01:16:34;12.02;;;3.90;;
27794;SDS011;15176;50.844;4.412;2023-06-22T01:19:09;10.48;;;4.85;;
27794;SDS011;15176;50.844;4.412;2023-06-22T01:21:58;9.00;;;4.70;;
27794;SDS011;15176;50.844;4.412;2023-06-22T01:24:27;8.52;;;4.55;;
27794;SDS011;15176;50.844;4.412;2023-06-22T01:27:07;8.38;;;3.67;;
27794;SDS011;15176;50.844;4.412;2023-06-22T01:29:58;7.00;;;3.67;;
27794;SDS011;15176;50.844;4.412;2023-06-22T01:32:30;7.03;;;4.45;;
27794;SDS011;15176;50.844;4.412;2023-06-22T01:35:00;9.15;;;4.03;;
27794;SDS011;15176;50.844;4.412;2023-06-22T01:37:28;7.00;;;4.25;;
27794;SDS011;15176;50.844;4.412;2023-06-22T01:39:57;8.05;;;4.50;;
27794;SDS011;15176;50.844;4.412;2023-06-22T01:42:24;11.90;;;5.30;;
27794;SDS011;15176;50.844;4.412;2023-06-22T01:44:51;7.65;;;4.75;;
27794;SDS011;15176;50.844;4.412;2023-06-22T01:47:18;9.55;;;5.05;;
27794;SDS011;15176;50.844;4.412;2023-06-22T01:49:45;8.45;;;4.50;;
27794;SDS011;15176;50.844;4.412;2023-06-22T01:52:11;7.07;;;4.15;;
27794;SDS011;15176;50.844;4.412;2023-06-22T01:54:38;8.30;;;4.43;;
27794;SDS011;15176;50.844;4.412;2023-06-22T01:57:05;8.35;;;4.55;;
27794;SDS011;15176;50.844;4.412;2023-06-22T01:59:34;9.68;;;4.70;;
27794;SDS011;15176;50.844;4.412;2023-06-22T02:02:09;9.10;;;4.80;;
27794;SDS011;15176;50.844;4.412;2023-06-22T02:04:42;8.38;;;4.60;;
27794;SDS011;15176;50.844;4.412;2023-06-22T02:07:13;8.93;;;4.53;;
27794;SDS011;15176;50.844;4.412;2023-06-22T02:09:42;9.00;;;5.30;;
27794;SDS011;15176;50.844;4.412;2023-06-22T02:12:11;7.32;;;4.10;;
27794;SDS011;15176;50.844;4.412;2023-06-22T02:14:38;7.78;;;4.53;;
27794;SDS011;15176;50.844;4.412;2023-06-22T02:17:05;8.40;;;4.50;;
27794;SDS011;15176;50.844;4.412;2023-06-22T02:19:37;6.88;;;4.40;;
27794;SDS011;15176;50.844;4.412;2023-06-22T02:22:03;7.25;;;4.63;;
27794;SDS011;15176;50.844;4.412;2023-06-22T02:24:29;9.20;;;5.22;;
27794;SDS011;15176;50.844;4.412;2023-06-22T02:26:57;13.30;;;5.60;;
27794;SDS011;15176;50.844;4.412;2023-06-22T02:29:23;10.48;;;5.22;;
27794;SDS011;15176;50.844;4.412;2023-06-22T02:31:49;8.77;;;5.32;;
27794;SDS011;15176;50.844;4.412;2023-06-22T02:34:15;7.75;;;4.70;;
27794;SDS011;15176;50.844;4.412;2023-06-22T02:36:44;8.88;;;5.63;;
27794;SDS011;15176;50.844;4.412;2023-06-22T02:39:19;8.23;;;5.25;;
27794;SDS011;15176;50.844;4.412;2023-06-22T02:41:47;9.02;;;5.50;;
27794;SDS011;15176;50.844;4.412;2023-06-22T02:44:16;8.88;;;5.88;;
27794;SDS011;15176;50.844;4.412;2023-06-22T02:46:42;8.10;;;4.60;;
27794;SDS011;15176;50.844;4.412;2023-06-22T02:49:08;10.13;;;6.32;;
27794;SDS011;15176;50.844;4.412;2023-06-22T02:51:35;10.98;;;5.80;;
27794;SDS011;15176;50.844;4.412;2023-06-22T02:54:04;11.13;;;5.78;;
27794;SDS011;15176;50.844;4.412;2023-06-22T02:56:31;8.80;;;5.55;;
27794;SDS011;15176;50.844;4.412;2023-06-22T02:58:57;8.57;;;5.05;;
27794;SDS011;15176;50.844;4.412;2023-06-22T03:01:29;9.90;;;6.07;;
27794;SDS011;15176;50.844;4.412;2023-06-22T03:03:58;9.68;;;6.00;;
27794;SDS011;15176;50.844;4.412;2023-06-22T03:06:24;10.07;;;5.95;;
27794;SDS011;15176;50.844;4.412;2023-06-22T03:08:57;9.02;;;5.45;;
27794;SDS011;15176;50.844;4.412;2023-06-22T03:11:24;10.38;;;5.78;;
27794;SDS011;15176;50.844;4.412;2023-06-22T03:13:50;7.63;;;5.25;;
27794;SDS011;15176;50.844;4.412;2023-06-22T03:16:17;11.20;;;5.25;;
27794;SDS011;15176;50.844;4.412;2023-06-22T03:18:44;10.85;;;5.88;;
27794;SDS011;15176;50.844;4.412;2023-06-22T03:21:10;10.50;;;5.88;;
27794;SDS011;15176;50.844;4.412;2023-06-22T03:23:35;11.05;;;6.22;;
27794;SDS011;15176;50.844;4.412;2023-06-22T03:26:01;10.32;;;6.30;;
27794;SDS011;15176;50.844;4.412;2023-06-22T03:28:30;9.68;;;6.05;;
27794;SDS011;15176;50.844;4.412;2023-06-22T03:30:58;9.55;;;5.78;;
27794;SDS011;15176;50.844;4.412;2023-06-22T03:33:24;11.18;;;6.10;;
27794;SDS011;15176;50.844;4.412;2023-06-22T03:35:51;9.10;;;5.68;;
27794;SDS011;15176;50.844;4.412;2023-06-22T03:38:17;10.25;;;5.63;;
27794;SDS011;15176;50.844;4.412;2023-06-22T03:40:44;11.35;;;5.80;;
27794;SDS011;15176;50.844;4.412;2023-06-22T03:43:09;11.73;;;5.93;;
27794;SDS011;15176;50.844;4.412;2023-06-22T03:45:35;11.13;;;6.50;;
27794;SDS011;15176;50.844;4.412;2023-06-22T03:48:01;9.68;;;5.88;;
27794;SDS011;15176;50.844;4.412;2023-06-22T03:50:27;10.98;;;6.25;;
27794;SDS011;15176;50.844;4.412;2023-06-22T03:52:55;11.45;;;5.70;;
27794;SDS011;15176;50.844;4.412;2023-06-22T03:55:23;11.07;;;6.18;;
27794;SDS011;15176;50.844;4.412;2023-06-22T03:57:49;11.88;;;6.88;;
27794;SDS011;15176;50.844;4.412;2023-06-22T04:00:15;9.55;;;5.57;;
27794;SDS011;15176;50.844;4.412;2023-06-22T04:02:41;10.65;;;6.28;;
27794;SDS011;15176;50.844;4.412;2023-06-22T04:05:08;11.15;;;6.45;;
27794;SDS011;15176;50.844;4.412;2023-06-22T04:07:34;11.80;;;6.45;;
27794;SDS011;15176;50.844;4.412;2023-06-22T04:10:02;11.20;;;6.75;;
27794;SDS011;15176;50.844;4.412;2023-06-22T04:12:31;10.98;;;6.47;;
27794;SDS011;15176;50.844;4.412;2023-06-22T04:15:00;11.07;;;5.80;;
27794;SDS011;15176;50.844;4.412;2023-06-22T04:17:26;10.60;;;7.20;;
27794;SDS011;15176;50.844;4.412;2023-06-22T04:19:51;10.52;;;6.97;;
27794;SDS011;15176;50.844;4.412;2023-06-22T04:22:17;12.00;;;7.90;;
27794;SDS011;15176;50.844;4.412;2023-06-22T04:24:43;13.50;;;7.93;;
27794;SDS011;15176;50.844;4.412;2023-06-22T04:27:09;12.10;;;7.68;;
27794;SDS011;15176;50.844;4.412;2023-06-22T04:29:35;13.15;;;8.15;;
27794;SDS011;15176;50.844;4.412;2023-06-22T04:32:00;14.13;;;8.70;;
27794;SDS011;15176;50.844;4.412;2023-06-22T04:34:30;14.32;;;8.50;;
27794;SDS011;15176;50.844;4.412;2023-06-22T04:36:56;11.40;;;7.15;;
27794;SDS011;15176;50.844;4.412;2023-06-22T04:39:22;15.23;;;8.48;;
27794;SDS011;15176;50.844;4.412;2023-06-22T04:41:48;12.52;;;7.45;;
27794;SDS011;15176;50.844;4.412;2023-06-22T04:44:17;9.13;;;5.45;;
27794;SDS011;15176;50.844;4.412;2023-06-22T04:46:49;9.75;;;5.10;;
27794;SDS011;15176;50.844;4.412;2023-06-22T04:49:19;8.35;;;5.10;;
27794;SDS011;15176;50.844;4.412;2023-06-22T04:51:46;10.82;;;6.63;;
27794;SDS011;15176;50.844;4.412;2023-06-22T04:54:11;10.80;;;6.13;;
27794;SDS011;15176;50.844;4.412;2023-06-22T04:56:37;13.82;;;7.90;;
27794;SDS011;15176;50.844;4.412;2023-06-22T04:59:05;10.90;;;5.75;;
27794;SDS011;15176;50.844;4.412;2023-06-22T05:01:32;13.15;;;8.35;;
27794;SDS011;15176;50.844;4.412;2023-06-22T05:03:57;15.73;;;8.65;;
27794;SDS011;15176;50.844;4.412;2023-06-22T05:06:26;10.63;;;5.40;;
27794;SDS011;15176;50.844;4.412;2023-06-22T05:08:55;8.98;;;5.68;;
27794;SDS011;15176;50.844;4.412;2023-06-22T05:11:25;18.70;;;9.07;;
27794;SDS011;15176;50.844;4.412;2023-06-22T05:13:54;13.95;;;8.73;;
27794;SDS011;15176;50.844;4.412;2023-06-22T05:16:21;14.63;;;9.40;;
27794;SDS011;15176;50.844;4.412;2023-06-22T05:18:52;15.55;;;10.00;;
27794;SDS011;15176;50.844;4.412;2023-06-22T05:21:22;9.40;;;6.15;;
27794;SDS011;15176;50.844;4.412;2023-06-22T05:23:50;8.13;;;4.93;;
27794;SDS011;15176;50.844;4.412;2023-06-22T05:26:17;9.48;;;5.90;;
27794;SDS011;15176;50.844;4.412;2023-06-22T05:28:43;15.32;;;9.98;;
27794;SDS011;15176;50.844;4.412;2023-06-22T05:31:13;18.60;;;9.68;;
27794;SDS011;15176;50.844;4.412;2023-06-22T05:33:40;16.55;;;10.55;;
27794;SDS011;15176;50.844;4.412;2023-06-22T05:36:06;16.05;;;10.38;;
27794;SDS011;15176;50.844;4.412;2023-06-22T05:38:33;17.40;;;9.55;;
27794;SDS011;15176;50.844;4.412;2023-06-22T05:40:58;19.52;;;12.13;;
27794;SDS011;15176;50.844;4.412;2023-06-22T05:43:24;19.75;;;13.18;;
27794;SDS011;15176;50.844;4.412;2023-06-22T05:45:50;18.58;;;10.55;;
27794;SDS011;15176;50.844;4.412;2023-06-22T05:48:15;16.40;;;10.70;;
27794;SDS011;15176;50.844;4.412;2023-06-22T05:50:41;16.23;;;9.75;;
27794;SDS011;15176;50.844;4.412;2023-06-22T05:53:07;13.52;;;7.95;;
27794;SDS011;15176;50.844;4.412;2023-06-22T05:55:33;11.88;;;7.60;;
27794;SDS011;15176;50.844;4.412;2023-06-22T05:57:59;10.63;;;6.00;;
27794;SDS011;15176;50.844;4.412;2023-06-22T06:00:25;14.80;;;8.23;;
27794;SDS011;15176;50.844;4.412;2023-06-22T06:02:50;16.73;;;11.98;;
27794;SDS011;15176;50.844;4.412;2023-06-22T06:05:16;18.67;;;9.82;;
27794;SDS011;15176;50.844;4.412;2023-06-22T06:07:42;20.20;;;11.98;;
27794;SDS011;15176;50.844;4.412;2023-06-22T06:10:08;23.55;;;14.18;;
27794;SDS011;15176;50.844;4.412;2023-06-22T06:12:34;20.65;;;12.55;;
27794;SDS011;15176;50.844;4.412;2023-06-22T06:15:01;17.02;;;9.50;;
27794;SDS011;15176;50.844;4.412;2023-06-22T06:17:27;18.52;;;8.63;;
27794;SDS011;15176;50.844;4.412;2023-06-22T06:19:53;20.92;;;10.35;;
27794;SDS011;15176;50.844;4.412;2023-06-22T06:22:18;16.63;;;11.65;;
27794;SDS011;15176;50.844;4.412;2023-06-22T06:24:46;21.27;;;12.32;;
27794;SDS011;15176;50.844;4.412;2023-06-22T06:27:13;23.10;;;13.73;;
27794;SDS011;15176;50.844;4.412;2023-06-22T06:29:39;25.13;;;14.10;;
27794;SDS011;15176;50.844;4.412;2023-06-22T06:32:05;23.85;;;14.07;;
27794;SDS011;15176;50.844;4.412;2023-06-22T06:34:31;22.08;;;13.80;;
27794;SDS011;15176;50.844;4.412;2023-06-22T06:36:57;21.40;;;13.65;;
27794;SDS011;15176;50.844;4.412;2023-06-22T06:39:23;22.15;;;14.20;;
27794;SDS011;15176;50.844;4.412;2023-06-22T06:41:49;22.67;;;13.80;;
27794;SDS011;15176;50.844;4.412;2023-06-22T06:44:14;21.23;;;14.50;;
27794;SDS011;15176;50.844;4.412;2023-06-22T06:46:40;19.20;;;13.20;;
27794;SDS011;15176;50.844;4.412;2023-06-22T06:49:07;21.75;;;14.07;;
27794;SDS011;15176;50.844;4.412;2023-06-22T06:51:33;21.38;;;13.75;;
27794;SDS011;15176;50.844;4.412;2023-06-22T06:53:58;18.40;;;12.52;;
27794;SDS011;15176;50.844;4.412;2023-06-22T06:56:24;20.35;;;13.13;;
27794;SDS011;15176;50.844;4.412;2023-06-22T06:58:51;18.13;;;11.65;;
27794;SDS011;15176;50.844;4.412;2023-06-22T07:01:17;26.35;;;15.23;;
27794;SDS011;15176;50.844;4.412;2023-06-22T07:03:42;23.90;;;13.40;;
27794;SDS011;15176;50.844;4.412;2023-06-22T07:06:08;24.75;;;15.10;;
27794;SDS011;15176;50.844;4.412;2023-06-22T07:08:34;21.65;;;13.02;;
27794;SDS011;15176;50.844;4.412;2023-06-22T07:11:01;19.65;;;11.27;;
27794;SDS011;15176;50.844;4.412;2023-06-22T07:13:27;22.15;;;12.15;;
27794;SDS011;15176;50.844;4.412;2023-06-22T07:15:53;22.85;;;14.85;;
27794;SDS011;15176;50.844;4.412;2023-06-22T07:18:19;21.77;;;13.70;;
27794;SDS011;15176;50.844;4.412;2023-06-22T07:20:44;20.23;;;13.07;;
27794;SDS011;15176;50.844;4.412;2023-06-22T07:23:10;19.88;;;14.23;;
27794;SDS011;15176;50.844;4.412;2023-06-22T07:25:37;18.58;;;12.77;;
27794;SDS011;15176;50.844;4.412;2023-06-22T07:28:04;20.50;;;13.23;;
27794;SDS011;15176;50.844;4.412;2023-06-22T07:30:32;21.17;;;13.88;;
27794;SDS011;15176;50.844;4.412;2023-06-22T07:32:59;25.67;;;14.52;;
27794;SDS011;15176;50.844;4.412;2023-06-22T07:35:28;19.58;;;12.07;;
27794;SDS011;15176;50.844;4.412;2023-06-22T07:37:54;23.90;;;17.58;;
27794;SDS011;15176;50.844;4.412;2023-06-22T07:40:22;22.60;;;16.67;;
27794;SDS011;15176;50.844;4.412;2023-06-22T07:43:00;17.88;;;12.35;;
27794;SDS011;15176;50.844;4.412;2023-06-22T07:45:26;25.50;;;14.63;;
27794;SDS011;15176;50.844;4.412;2023-06-22T07:47:54;22.35;;;13.52;;
27794;SDS011;15176;50.844;4.412;2023-06-22T07:50:20;21.30;;;12.60;;
27794;SDS011;15176;50.844;4.412;2023-06-22T07:52:49;20.38;;;12.10;;
27794;SDS011;15176;50.844;4.412;2023-06-22T07:55:15;16.88;;;11.40;;
27794;SDS011;15176;50.844;4.412;2023-06-22T07:57:41;21.02;;;13.82;;
27794;SDS011;15176;50.844;4.412;2023-06-22T08:00:07;19.75;;;13.25;;
27794;SDS011;15176;50.844;4.412;2023-06-22T08:02:39;24.42;;;13.68;;
27794;SDS011;15176;50.844;4.412;2023-06-22T08:05:06;17.27;;;11.35;;
27794;SDS011;15176;50.844;4.412;2023-06-22T08:07:34;23.77;;;14.20;;
27794;SDS011;15176;50.844;4.412;2023-06-22T08:10:03;18.50;;;13.02;;
27794;SDS011;15176;50.844;4.412;2023-06-22T08:12:30;18.42;;;11.43;;
27794;SDS011;15176;50.844;4.412;2023-06-22T08:14:55;24.25;;;13.82;;
27794;SDS011;15176;50.844;4.412;2023-06-22T08:17:22;19.27;;;10.55;;
27794;SDS011;15176;50.844;4.412;2023-06-22T08:19:49;22.02;;;13.90;;
27794;SDS011;15176;50.844;4.412;2023-06-22T08:22:15;18.20;;;13.75;;
27794;SDS011;15176;50.844;4.412;2023-06-22T08:24:44;21.95;;;14.18;;
27794;SDS011;15176;50.844;4.412;2023-06-22T08:27:10;19.15;;;13.65;;
27794;SDS011;15176;50.844;4.412;2023-06-22T08:29:38;19.27;;;13.70;;
27794;SDS011;15176;50.844;4.412;2023-06-22T08:32:10;22.15;;;13.52;;
27794;SDS011;15176;50.844;4.412;2023-06-22T08:34:36;19.15;;;14.05;;
27794;SDS011;15176;50.844;4.412;2023-06-22T08:37:07;18.17;;;13.32;;
27794;SDS011;15176;50.844;4.412;2023-06-22T08:39:37;18.88;;;13.52;;
27794;SDS011;15176;50.844;4.412;2023-06-22T08:42:07;17.80;;;12.55;;
27794;SDS011;15176;50.844;4.412;2023-06-22T08:44:33;19.92;;;14.82;;
27794;SDS011;15176;50.844;4.412;2023-06-22T08:47:01;21.50;;;13.63;;
27794;SDS011;15176;50.844;4.412;2023-06-22T08:49:28;24.33;;;13.85;;
27794;SDS011;15176;50.844;4.412;2023-06-22T08:51:54;16.30;;;11.50;;
27794;SDS011;15176;50.844;4.412;2023-06-22T08:54:21;21.15;;;13.80;;
27794;SDS011;15176;50.844;4.412;2023-06-22T08:56:47;18.00;;;13.10;;
27794;SDS011;15176;50.844;4.412;2023-06-22T08:59:13;18.58;;;11.25;;
27794;SDS011;15176;50.844;4.412;2023-06-22T09:01:39;19.45;;;14.10;;
27794;SDS011;15176;50.844;4.412;2023-06-22T09:04:05;17.65;;;10.50;;
27794;SDS011;15176;50.844;4.412;2023-06-22T09:06:32;14.20;;;9.93;;
27794;SDS011;15176;50.844;4.412;2023-06-22T09:08:58;16.45;;;12.13;;
27794;SDS011;15176;50.844;4.412;2023-06-22T09:11:26;19.77;;;13.45;;
27794;SDS011;15176;50.844;4.412;2023-06-22T09:13:52;20.63;;;12.57;;
27794;SDS011;15176;50.844;4.412;2023-06-22T09:16:18;24.90;;;14.38;;
27794;SDS011;15176;50.844;4.412;2023-06-22T09:18:47;15.40;;;9.90;;
27794;SDS011;15176;50.844;4.412;2023-06-22T09:21:14;17.15;;;10.93;;
27794;SDS011;15176;50.844;4.412;2023-06-22T09:23:43;19.50;;;10.70;;
27794;SDS011;15176;50.844;4.412;2023-06-22T09:26:10;18.90;;;12.23;;
27794;SDS011;15176;50.844;4.412;2023-06-22T09:28:36;26.17;;;11.77;;
27794;SDS011;15176;50.844;4.412;2023-06-22T09:31:02;20.90;;;10.63;;
27794;SDS011;15176;50.844;4.412;2023-06-22T09:33:28;20.23;;;12.02;;
27794;SDS011;15176;50.844;4.412;2023-06-22T09:35:53;18.10;;;10.02;;
27794;SDS011;15176;50.844;4.412;2023-06-22T09:38:19;19.05;;;10.07;;
27794;SDS011;15176;50.844;4.412;2023-06-22T09:40:45;26.05;;;13.35;;
27794;SDS011;15176;50.844;4.412;2023-06-22T09:43:10;18.70;;;11.23;;
27794;SDS011;15176;50.844;4.412;2023-06-22T09:45:37;20.38;;;11.80;;
27794;SDS011;15176;50.844;4.412;2023-06-22T09:48:02;18.55;;;11.32;;
27794;SDS011;15176;50.844;4.412;2023-06-22T09:50:30;20.55;;;10.82;;
27794;SDS011;15176;50.844;4.412;2023-06-22T09:52:56;22.17;;;11.52;;
27794;SDS011;15176;50.844;4.412;2023-06-22T09:55:22;19.73;;;13.27;;
27794;SDS011;15176;50.844;4.412;2023-06-22T09:57:49;19.05;;;10.13;;
27794;SDS011;15176;50.844;4.412;2023-06-22T10:00:15;18.48;;;11.68;;
27794;SDS011;15176;50.844;4.412;2023-06-22T10:02:42;16.65;;;10.57;;
27794;SDS011;15176;50.844;4.412;2023-06-22T10:05:08;18.67;;;13.00;;
27794;SDS011;15176;50.844;4.412;2023-06-22T10:07:33;17.40;;;11.13;;
27794;SDS011;15176;50.844;4.412;2023-06-22T10:10:00;19.70;;;10.52;;
27794;SDS011;15176;50.844;4.412;2023-06-22T10:12:27;15.35;;;11.00;;
27794;SDS011;15176;50.844;4.412;2023-06-22T10:14:52;13.48;;;8.80;;
27794;SDS011;15176;50.844;4.412;2023-06-22T10:17:18;14.73;;;8.68;;
27794;SDS011;15176;50.844;4.412;2023-06-22T10:19:44;14.57;;;8.93;;
27794;SDS011;15176;50.844;4.412;2023-06-22T10:22:10;16.38;;;10.82;;
27794;SDS011;15176;50.844;4.412;2023-06-22T10:24:36;21.02;;;13.40;;
27794;SDS011;15176;50.844;4.412;2023-06-22T10:27:03;17.38;;;12.30;;
27794;SDS011;15176;50.844;4.412;2023-06-22T10:29:29;16.70;;;12.35;;
27794;SDS011;15176;50.844;4.412;2023-06-22T10:31:54;16.02;;;11.65;;
27794;SDS011;15176;50.844;4.412;2023-06-22T10:34:20;16.02;;;12.20;;
27794;SDS011;15176;50.844;4.412;2023-06-22T10:36:46;18.42;;;12.38;;
27794;SDS011;15176;50.844;4.412;2023-06-22T10:39:13;20.50;;;13.98;;
27794;SDS011;15176;50.844;4.412;2023-06-22T10:41:40;41.35;;;15.32;;
27794;SDS011;15176;50.844;4.412;2023-06-22T10:44:06;90.57;;;35.97;;
27794;SDS011;15176;50.844;4.412;2023-06-22T10:46:31;109.25;;;53.92;;
27794;SDS011;15176;50.844;4.412;2023-06-22T10:48:57;27.20;;;15.90;;
27794;SDS011;15176;50.844;4.412;2023-06-22T10:51:23;34.25;;;16.08;;
27794;SDS011;15176;50.844;4.412;2023-06-22T10:53:50;22.95;;;15.57;;
27794;SDS011;15176;50.844;4.412;2023-06-22T10:56:16;22.30;;;16.88;;
27794;SDS011;15176;50.844;4.412;2023-06-22T10:58:43;20.90;;;15.80;;
27794;SDS011;15176;50.844;4.412;2023-06-22T11:01:11;24.48;;;16.38;;
27794;SDS011;15176;50.844;4.412;2023-06-22T11:03:36;26.60;;;18.77;;
27794;SDS011;15176;50.844;4.412;2023-06-22T11:06:02;29.15;;;18.40;;
27794;SDS011;15176;50.844;4.412;2023-06-22T11:08:28;24.25;;;18.48;;
27794;SDS011;15176;50.844;4.412;2023-06-22T11:10:54;24.98;;;17.88;;
27794;SDS011;15176;50.844;4.412;2023-06-22T11:13:19;36.20;;;14.88;;
27794;SDS011;15176;50.844;4.412;2023-06-22T11:15:45;31.15;;;19.98;;
27794;SDS011;15176;50.844;4.412;2023-06-22T11:18:11;28.80;;;19.60;;
27794;SDS011;15176;50.844;4.412;2023-06-22T11:20:37;33.67;;;19.20;;
27794;SDS011;15176;50.844;4.412;2023-06-22T11:23:06;28.83;;;19.85;;
27794;SDS011;15176;50.844;4.412;2023-06-22T11:25:32;28.33;;;20.63;;
27794;SDS011;15176;50.844;4.412;2023-06-22T11:28:00;26.98;;;20.70;;
27794;SDS011;15176;50.844;4.412;2023-06-22T11:30:27;28.90;;;20.40;;
27794;SDS011;15176;50.844;4.412;2023-06-22T11:32:53;33.88;;;20.65;;
27794;SDS011;15176;50.844;4.412;2023-06-22T11:35:19;29.23;;;21.55;;
27794;SDS011;15176;50.844;4.412;2023-06-22T11:37:45;32.25;;;21.23;;
27794;SDS011;15176;50.844;4.412;2023-06-22T11:40:11;31.67;;;21.33;;
27794;SDS011;15176;50.844;4.412;2023-06-22T11:42:37;29.10;;;20.23;;
27794;SDS011;15176;50.844;4.412;2023-06-22T11:45:04;26.95;;;20.30;;
27794;SDS011;15176;50.844;4.412;2023-06-22T11:47:30;28.63;;;20.38;;
27794;SDS011;15176;50.844;4.412;2023-06-22T11:49:56;25.67;;;20.75;;
27794;SDS011;15176;50.844;4.412;2023-06-22T11:52:22;30.98;;;20.83;;
27794;SDS011;15176;50.844;4.412;2023-06-22T11:54:47;24.98;;;17.35;;
27794;SDS011;15176;50.844;4.412;2023-06-22T11:57:16;27.10;;;19.17;;
27794;SDS011;15176;50.844;4.412;2023-06-22T11:59:42;28.90;;;18.88;;
27794;SDS011;15176;50.844;4.412;2023-06-22T12:02:08;27.58;;;19.48;;
27794;SDS011;15176;50.844;4.412;2023-06-22T12:04:34;27.98;;;19.35;;
27794;SDS011;15176;50.844;4.412;2023-06-22T12:07:00;27.85;;;20.75;;
27794;SDS011;15176;50.844;4.412;2023-06-22T12:09:30;25.40;;;19.05;;
27794;SDS011;15176;50.844;4.412;2023-06-22T12:11:58;24.48;;;17.40;;
27794;SDS011;15176;50.844;4.412;2023-06-22T12:14:25;24.38;;;18.67;;
27794;SDS011;15176;50.844;4.412;2023-06-22T12:16:51;24.25;;;17.63;;
27794;SDS011;15176;50.844;4.412;2023-06-22T12:19:17;24.63;;;18.00;;
27794;SDS011;15176;50.844;4.412;2023-06-22T12:21:43;24.25;;;18.38;;
27794;SDS011;15176;50.844;4.412;2023-06-22T12:24:10;23.20;;;18.55;;
27794;SDS011;15176;50.844;4.412;2023-06-22T12:26:36;27.40;;;19.42;;
27794;SDS011;15176;50.844;4.412;2023-06-22T12:29:02;23.95;;;18.10;;
27794;SDS011;15176;50.844;4.412;2023-06-22T12:31:27;28.25;;;20.70;;
27794;SDS011;15176;50.844;4.412;2023-06-22T12:33:54;26.90;;;20.60;;
27794;SDS011;15176;50.844;4.412;2023-06-22T12:36:22;29.63;;;22.23;;
27794;SDS011;15176;50.844;4.412;2023-06-22T12:38:49;28.60;;;21.60;;
27794;SDS011;15176;50.844;4.412;2023-06-22T12:41:14;33.38;;;22.30;;
27794;SDS011;15176;50.844;4.412;2023-06-22T12:43:41;29.23;;;20.65;;
27794;SDS011;15176;50.844;4.412;2023-06-22T12:46:06;28.23;;;21.02;;
27794;SDS011;15176;50.844;4.412;2023-06-22T12:48:32;30.17;;;21.90;;
27794;SDS011;15176;50.844;4.412;2023-06-22T12:50:58;30.92;;;21.75;;
27794;SDS011;15176;50.844;4.412;2023-06-22T12:53:25;31.38;;;21.58;;
27794;SDS011;15176;50.844;4.412;2023-06-22T12:55:54;28.52;;;21.92;;
27794;SDS011;15176;50.844;4.412;2023-06-22T12:58:20;33.50;;;23.77;;
27794;SDS011;15176;50.844;4.412;2023-06-22T13:00:49;26.23;;;20.42;;
27794;SDS011;15176;50.844;4.412;2023-06-22T13:03:14;31.13;;;23.27;;
27794;SDS011;15176;50.844;4.412;2023-06-22T13:05:44;40.13;;;30.90;;
27794;SDS011;15176;50.844;4.412;2023-06-22T13:08:11;32.83;;;23.88;;
27794;SDS011;15176;50.844;4.412;2023-06-22T13:10:36;33.55;;;24.98;;
27794;SDS011;15176;50.844;4.412;2023-06-22T13:13:02;32.13;;;24.02;;
27794;SDS011;15176;50.844;4.412;2023-06-22T13:15:28;35.80;;;25.13;;
27794;SDS011;15176;50.844;4.412;2023-06-22T13:17:54;34.67;;;25.02;;
27794;SDS011;15176;50.844;4.412;2023-06-22T13:20:20;34.92;;;25.33;;
27794;SDS011;15176;50.844;4.412;2023-06-22T13:22:46;32.38;;;25.92;;
27794;SDS011;15176;50.844;4.412;2023-06-22T13:25:12;35.25;;;26.20;;
27794;SDS011;15176;50.844;4.412;2023-06-22T13:27:38;36.10;;;25.70;;
27794;SDS011;15176;50.844;4.412;2023-06-22T13:30:05;35.97;;;26.05;;
27794;SDS011;15176;50.844;4.412;2023-06-22T13:32:31;34.58;;;25.92;;
27794;SDS011;15176;50.844;4.412;2023-06-22T13:34:57;35.00;;;24.20;;
27794;SDS011;15176;50.844;4.412;2023-06-22T13:37:23;34.85;;;26.42;;
27794;SDS011;15176;50.844;4.412;2023-06-22T13:39:48;34.45;;;25.92;;
27794;SDS011;15176;50.844;4.412;2023-06-22T13:42:14;33.15;;;23.80;;
27794;SDS011;15176;50.844;4.412;2023-06-22T13:44:40;30.88;;;23.08;;
27794;SDS011;15176;50.844;4.412;2023-06-22T13:47:06;32.53;;;21.77;;
27794;SDS011;15176;50.844;4.412;2023-06-22T13:49:34;34.17;;;22.33;;
27794;SDS011;15176;50.844;4.412;2023-06-22T13:52:00;51.75;;;38.97;;
27794;SDS011;15176;50.844;4.412;2023-06-22T13:54:28;65.75;;;50.42;;
27794;SDS011;15176;50.844;4.412;2023-06-22T13:56:54;32.25;;;22.42;;
27794;SDS011;15176;50.844;4.412;2023-06-22T13:59:21;33.63;;;23.02;;
27794;SDS011;15176;50.844;4.412;2023-06-22T14:01:52;27.77;;;20.73;;
27794;SDS011;15176;50.844;4.412;2023-06-22T14:04:18;32.92;;;24.08;;
27794;SDS011;15176;50.844;4.412;2023-06-22T14:06:44;29.63;;;22.83;;
27794;SDS011;15176;50.844;4.412;2023-06-22T14:09:09;30.95;;;23.60;;
27794;SDS011;15176;50.844;4.412;2023-06-22T14:11:36;32.92;;;24.67;;
27794;SDS011;15176;50.844;4.412;2023-06-22T14:14:02;34.15;;;24.10;;
27794;SDS011;15176;50.844;4.412;2023-06-22T14:16:28;33.50;;;24.65;;
27794;SDS011;15176;50.844;4.412;2023-06-22T14:18:54;33.92;;;25.30;;
27794;SDS011;15176;50.844;4.412;2023-06-22T14:21:19;33.08;;;25.65;;
27794;SDS011;15176;50.844;4.412;2023-06-22T14:23:45;33.95;;;23.75;;
27794;SDS011;15176;50.844;4.412;2023-06-22T14:26:14;28.83;;;23.10;;
27794;SDS011;15176;50.844;4.412;2023-06-22T14:28:43;29.98;;;22.63;;
27794;SDS011;15176;50.844;4.412;2023-06-22T14:31:12;32.22;;;25.70;;
27794;SDS011;15176;50.844;4.412;2023-06-22T14:33:48;27.20;;;21.80;;
27794;SDS011;15176;50.844;4.412;2023-06-22T14:36:15;32.72;;;24.58;;